Terminal Aerodrome Forecast
Issued by NWS

Home | Current Version | Previous Version | Text Only | Print | Product List | Glossary On
Versions: 1 2 3 4 5 6 7 8 9 10 11 12 13 14 15
000
FTUS46 KEKA 281736
TAFUKI
TAF
KUKI 281736Z 2818/0118 33005KT P6SM FEW020 SCT200
     FM282100 33003KT P6SM -SHRA VCTS BKN035CB
     FM010300 00000KT P6SM SCT020
     FM011400 27003KT P6SM SKC=

USA.gov is the U.S. government's official web portal to all federal, state and local government web resources and services.